Time;durP1;ratioP1;P1;durP2;ratioP2;P2;SDS_P1;SDS_P2;PMS_P1;PMS_P2;Temp;Humidity;BMP_temperature;BMP_pressure;BME280_temperature;BME280_humidity;BME280_pressure;Samples;Min_cycle;Max_cycle;Signal;HPM_P1;HPM_P2
2022/11/20 00:00:09;;;;;;;10.77;5.00;;;;;;;-140.72;100.00;53340.59;5100355;28;20110;-76
2022/11/20 00:02:34;;;;;;;8.68;5.53;;;;;;;-140.72;100.00;53385.25;5103852;28;20455;-76
2022/11/20 00:04:59;;;;;;;11.32;5.63;;;;;;;-140.72;100.00;53364.97;5090862;28;20027;-75
2022/11/20 00:07:25;;;;;;;12.13;5.25;;;;;;;-140.72;100.00;53354.81;5104342;28;20024;-75
2022/11/20 00:09:50;;;;;;;9.93;6.05;;;;;;;-140.72;100.00;53344.66;5096611;28;20106;-76
2022/11/20 00:12:15;;;;;;;7.40;4.90;;;;;;;-140.72;100.00;53352.78;5111590;28;20032;-75
2022/11/20 00:14:41;;;;;;;10.50;5.57;;;;;;;-140.72;100.00;53375.09;5092208;28;20032;-75
2022/11/20 00:17:07;;;;;;;7.82;5.57;;;;;;;-140.72;100.00;53354.81;5107280;28;20032;-75
2022/11/20 00:19:32;;;;;;;6.85;5.63;;;;;;;-140.72;100.00;53385.25;5100838;28;20032;-76
2022/11/20 00:21:59;;;;;;;10.43;6.25;;;;;;;-140.72;100.00;53397.44;5097655;28;20035;-75
2022/11/20 00:24:27;;;;;;;9.57;4.97;;;;;;;-140.72;100.00;53377.13;5101277;28;20023;-76
2022/11/20 00:26:52;;;;;;;9.98;6.45;;;;;;;-140.72;100.00;53342.63;5106435;28;20357;-76
2022/11/20 00:29:18;;;;;;;8.00;5.53;;;;;;;-140.72;100.00;53354.81;5103932;28;20073;-76
2022/11/20 00:31:43;;;;;;;11.80;5.43;;;;;;;-140.72;100.00;53369.00;5099601;28;20450;-75
2022/11/20 00:34:10;;;;;;;11.43;6.40;;;;;;;-140.72;100.00;53358.88;5102967;28;20023;-76
2022/11/20 00:36:36;;;;;;;7.70;5.07;;;;;;;-140.72;100.00;53358.88;5096646;28;20036;-75
2022/11/20 00:39:02;;;;;;;7.28;5.55;;;;;;;-140.72;100.00;53391.34;5098412;28;20024;-76
2022/11/20 00:41:29;;;;;;;10.05;5.28;;;;;;;-140.72;100.00;53358.88;5104017;28;20077;-75
2022/11/20 00:43:55;;;;;;;9.95;7.88;;;;;;;-140.72;100.00;53340.59;5099212;28;20545;-76
2022/11/20 00:46:25;;;;;;;7.78;5.03;;;;;;;-140.72;100.00;53397.44;5099613;28;20449;-76
2022/11/20 00:48:50;;;;;;;5.63;3.92;;;;;;;-140.72;100.00;53389.31;5105073;28;20400;-76
2022/11/20 00:51:21;;;;;;;8.57;4.97;;;;;;;-140.72;100.00;53385.25;5110693;28;20024;-76
2022/11/20 00:53:47;;;;;;;6.88;4.60;;;;;;;-140.72;100.00;53387.28;5093819;28;20052;-76
2022/11/20 00:56:16;;;;;;;7.85;4.95;;;;;;;-140.72;100.00;53393.38;5092136;28;20051;-76
2022/11/20 00:58:43;;;;;;;9.35;5.57;;;;;;;-140.72;100.00;53367.00;5098717;28;20027;-76
2022/11/20 01:01:17;;;;;;;8.05;5.10;;;;;;;-140.72;100.00;53364.97;5110180;28;20481;-75
2022/11/20 01:03:47;;;;;;;7.45;4.57;;;;;;;-140.72;100.00;53373.06;5097563;28;20495;-75
2022/11/20 01:06:18;;;;;;;8.15;5.53;;;;;;;-140.72;100.00;53375.09;5101499;28;20062;-76
2022/11/20 01:08:45;;;;;;;8.02;4.30;;;;;;;-140.72;100.00;53352.78;5106042;28;20481;-76
2022/11/20 01:11:13;;;;;;;8.52;5.38;;;;;;;-140.72;100.00;53377.13;5097927;28;20029;-75
2022/11/20 01:13:38;;;;;;;9.70;6.03;;;;;;;-140.72;100.00;53413.66;5103485;28;20024;-76
2022/11/20 01:16:23;;;;;;;9.48;5.65;;;;;;;-140.72;100.00;53379.16;5090326;28;20392;-76
2022/11/20 01:18:52;;;;;;;5.53;3.72;;;;;;;-140.72;100.00;53375.09;5096774;28;20066;-75
2022/11/20 01:21:20;;;;;;;10.77;6.90;;;;;;;-140.72;100.00;53381.19;5092654;28;20020;-77
2022/11/20 01:23:47;;;;;;;8.20;5.75;;;;;;;-140.72;100.00;53383.22;5094717;28;20270;-75
2022/11/20 01:26:24;;;;;;;9.20;5.45;;;;;;;-140.72;100.00;53367.00;5111088;28;20531;-75
2022/11/20 01:28:50;;;;;;;9.43;4.55;;;;;;;-140.72;100.00;53364.97;5114431;28;20023;-76
2022/11/20 01:31:21;;;;;;;5.40;3.80;;;;;;;-140.72;100.00;53336.53;5108259;28;20240;-75
2022/11/20 01:33:49;;;;;;;11.95;5.93;;;;;;;-140.72;100.00;53344.66;5107192;28;20055;-75
2022/11/20 01:36:18;;;;;;;8.15;5.47;;;;;;;-140.72;100.00;53352.78;5107175;28;20050;-75
2022/11/20 01:38:46;;;;;;;9.13;4.82;;;;;;;-140.72;100.00;53354.81;5094413;28;20047;-75
2022/11/20 01:43:20;;;;;;;10.68;4.88;;;;;;;-140.72;100.00;53421.78;5114356;28;20038;-75
2022/11/20 01:43:59;;;;;;;8.05;5.45;;;;;;;-140.72;100.00;53389.31;5099512;28;20102;-75
2022/11/20 01:46:25;;;;;;;11.30;6.05;;;;;;;-140.72;100.00;53316.25;5102415;28;20115;-76
2022/11/20 01:49:38;;;;;;;7.22;4.53;;;;;;;-140.72;100.00;53354.81;5097301;28;20279;-76
2022/11/20 01:52:11;;;;;;;7.70;5.05;;;;;;;-140.72;100.00;53328.41;5082225;28;20036;-76
2022/11/20 01:54:48;;;;;;;14.40;7.95;;;;;;;-140.72;100.00;53383.22;5108979;28;20469;-76
2022/11/20 01:57:17;;;;;;;9.48;6.57;;;;;;;-140.72;100.00;53383.22;5106541;28;20035;-76
2022/11/20 01:59:50;;;;;;;16.80;7.85;;;;;;;-140.72;100.00;53385.25;5112614;28;20544;-76
2022/11/20 02:02:15;;;;;;;9.93;5.90;;;;;;;-140.72;100.00;53324.38;5112645;28;20540;-76
2022/11/20 02:04:42;;;;;;;10.00;5.63;;;;;;;-140.72;100.00;53364.97;5093886;28;20167;-76
2022/11/20 02:07:08;;;;;;;8.30;7.25;;;;;;;-140.72;100.00;53352.78;5106535;28;20053;-76
2022/11/20 02:09:33;;;;;;;16.42;6.85;;;;;;;-140.72;100.00;53364.97;5113711;28;20072;-76
2022/11/20 02:11:59;;;;;;;16.80;9.25;;;;;;;-140.72;100.00;53334.50;5093661;28;20024;-76
2022/11/20 02:14:25;;;;;;;8.60;5.82;;;;;;;-140.72;100.00;53391.34;5106397;28;20031;-76
2022/11/20 02:16:51;;;;;;;12.18;7.18;;;;;;;-140.72;100.00;53338.56;5111618;28;20039;-76
2022/11/20 02:19:25;;;;;;;8.25;7.05;;;;;;;-140.72;100.00;53356.84;5099543;28;20362;-76
2022/11/20 02:21:58;;;;;;;13.38;6.85;;;;;;;-140.72;100.00;53312.19;5099462;28;20060;-76
2022/11/20 02:24:24;;;;;;;12.82;6.90;;;;;;;-140.72;100.00;53364.97;5102883;28;20061;-76
2022/11/20 02:26:53;;;;;;;12.35;8.23;;;;;;;-140.72;100.00;53340.59;5110333;28;20418;-76
2022/11/20 02:29:47;;;;;;;12.48;5.90;;;;;;;-140.72;100.00;53397.44;5112966;28;20038;-76
2022/11/20 02:32:25;;;;;;;7.00;5.25;;;;;;;-140.72;100.00;53340.59;5103027;28;20072;-76
2022/11/20 02:34:50;;;;;;;10.43;8.38;;;;;;;-140.72;100.00;53364.97;5096855;28;20024;-76
2022/11/20 02:37:17;;;;;;;9.93;6.05;;;;;;;-140.72;100.00;53401.50;5102649;28;20020;-76
2022/11/20 02:39:45;;;;;;;7.15;5.22;;;;;;;-140.72;100.00;53401.50;5105717;28;20102;-76
2022/11/20 02:42:12;;;;;;;10.77;7.35;;;;;;;-140.72;100.00;53373.06;5093742;28;20034;-76
2022/11/20 02:44:40;;;;;;;7.35;5.00;;;;;;;-140.72;100.00;53375.09;5109975;28;20473;-76
2022/11/20 02:47:07;;;;;;;10.30;5.85;;;;;;;-140.72;100.00;53397.44;5107543;28;20392;-76
2022/11/20 02:49:32;;;;;;;11.25;7.20;;;;;;;-140.72;100.00;53377.13;5112722;28;20764;-77
2022/11/20 02:51:58;;;;;;;8.38;5.28;;;;;;;-140.72;100.00;53356.84;5106893;28;20225;-76
2022/11/20 02:54:24;;;;;;;13.48;9.40;;;;;;;-140.72;100.00;53364.97;5092599;28;20051;-76
2022/11/20 02:56:50;;;;;;;17.48;12.15;;;;;;;-140.72;100.00;53401.50;5099037;28;20085;-76
2022/11/20 02:59:15;;;;;;;20.42;13.15;;;;;;;-140.72;100.00;53403.53;5100667;28;20023;-76
2022/11/20 03:01:40;;;;;;;18.02;11.27;;;;;;;-140.72;100.00;53397.44;5112764;28;20027;-76
2022/11/20 03:04:06;;;;;;;21.23;11.02;;;;;;;-140.72;100.00;53379.16;5103923;28;20062;-76
2022/11/20 03:06:34;;;;;;;14.82;10.63;;;;;;;-140.72;100.00;53389.31;5094007;28;20024;-76
2022/11/20 03:09:07;;;;;;;17.33;12.15;;;;;;;-140.72;100.00;53389.31;5112735;28;20027;-77
2022/11/20 03:11:32;;;;;;;26.58;16.20;;;;;;;-140.72;100.00;53377.13;5098104;28;20461;-76
2022/11/20 03:14:01;;;;;;;20.80;14.00;;;;;;;-140.72;100.00;53362.94;5111129;28;20038;-76
2022/11/20 03:16:27;;;;;;;18.27;14.02;;;;;;;-140.72;100.00;53364.97;5101908;28;20035;-76
2022/11/20 03:18:53;;;;;;;18.60;13.88;;;;;;;-140.72;100.00;53379.16;5107905;28;20027;-76
2022/11/20 03:21:18;;;;;;;16.73;12.48;;;;;;;-140.72;100.00;53358.88;5102815;28;20028;-76
2022/11/20 03:23:52;;;;;;;18.50;10.10;;;;;;;-140.72;100.00;53373.06;5091772;28;20527;-76
2022/11/20 03:26:20;;;;;;;16.45;8.45;;;;;;;-140.72;100.00;53391.34;5091772;28;20035;-77
2022/11/20 03:28:50;;;;;;;11.82;9.05;;;;;;;-140.72;100.00;53405.56;5096250;28;20024;-76
2022/11/20 03:31:17;;;;;;;10.35;7.25;;;;;;;-140.72;100.00;53405.56;5112064;28;20047;-77
2022/11/20 03:33:45;;;;;;;11.52;7.85;;;;;;;-140.72;100.00;53381.19;5098337;28;20046;-77
2022/11/20 03:36:13;;;;;;;15.25;9.55;;;;;;;-140.72;100.00;53411.63;5099033;28;20024;-77
2022/11/20 03:38:39;;;;;;;12.35;9.52;;;;;;;-140.72;100.00;53393.38;5108269;28;20109;-77
2022/11/20 03:41:13;;;;;;;11.70;8.43;;;;;;;-140.72;100.00;53409.59;5099312;28;20081;-76
2022/11/20 03:43:39;;;;;;;11.35;7.85;;;;;;;-140.72;100.00;53379.16;5097042;28;20061;-76
2022/11/20 03:46:07;;;;;;;13.75;6.78;;;;;;;-140.72;100.00;53389.31;5098028;28;20105;-76
2022/11/20 03:48:33;;;;;;;14.43;6.72;;;;;;;-140.72;100.00;53407.56;5089818;28;20807;-76
2022/11/20 03:51:13;;;;;;;11.85;7.45;;;;;;;-140.72;100.00;53407.56;5103597;28;20485;-77
2022/11/20 03:53:40;;;;;;;12.30;8.02;;;;;;;-140.72;100.00;53391.34;5105360;28;20024;-76
2022/11/20 03:56:07;;;;;;;11.85;7.00;;;;;;;-140.72;100.00;53421.78;5104673;28;20109;-77
2022/11/20 03:58:39;;;;;;;10.63;8.07;;;;;;;-140.72;100.00;53346.69;5104771;28;20020;-77
2022/11/20 04:01:09;;;;;;;13.05;7.63;;;;;;;-140.72;100.00;53409.59;5101898;28;20416;-77
2022/11/20 04:03:36;;;;;;;13.25;6.95;;;;;;;-140.72;100.00;53411.63;5101152;28;20053;-77
2022/11/20 04:06:10;;;;;;;13.90;9.35;;;;;;;-140.72;100.00;53409.59;5102895;28;20034;-77
2022/11/20 04:08:36;;;;;;;16.95;8.68;;;;;;;-140.72;100.00;53389.31;5092102;28;20031;-78
2022/11/20 04:11:18;;;;;;;9.55;6.95;;;;;;;-140.72;100.00;53409.59;5091771;28;20036;-76
2022/11/20 04:13:47;;;;;;;11.90;8.32;;;;;;;-140.72;100.00;53397.44;5090718;28;20043;-76
2022/11/20 04:16:13;;;;;;;15.73;7.43;;;;;;;-140.72;100.00;53375.09;5107623;28;20113;-77
2022/11/20 04:18:39;;;;;;;9.32;5.65;;;;;;;-140.72;100.00;53385.25;5110127;28;20112;-77
2022/11/20 04:21:06;;;;;;;9.23;7.07;;;;;;;-140.72;100.00;53393.38;5098718;28;20536;-77
2022/11/20 04:23:32;;;;;;;12.95;8.65;;;;;;;-140.72;100.00;53405.56;5109736;28;20031;-77
2022/11/20 04:26:08;;;;;;;10.23;8.55;;;;;;;-140.72;100.00;53377.13;5091312;28;20067;-77
2022/11/20 04:28:34;;;;;;;11.55;7.82;;;;;;;-140.72;100.00;53405.56;5090549;28;20219;-76
2022/11/20 04:31:08;;;;;;;7.13;5.38;;;;;;;-140.72;100.00;53409.59;5101444;28;20034;-77
2022/11/20 04:33:44;;;;;;;13.45;7.00;;;;;;;-140.72;100.00;53405.56;5098089;28;20055;-77
2022/11/20 04:36:17;;;;;;;10.77;5.70;;;;;;;-140.72;100.00;53415.69;5098057;28;20081;-77
2022/11/20 04:38:57;;;;;;;11.65;6.75;;;;;;;-140.72;100.00;53409.59;5104261;28;20028;-77
2022/11/20 04:41:26;;;;;;;8.57;6.15;;;;;;;-140.72;100.00;53381.19;5093467;28;20066;-77
2022/11/20 04:43:58;;;;;;;10.10;6.32;;;;;;;-140.72;100.00;53401.50;5110920;28;20250;-77
2022/11/20 04:46:24;;;;;;;8.93;5.47;;;;;;;-140.72;100.00;53397.44;5106776;28;20036;-77
2022/11/20 04:48:50;;;;;;;5.13;4.60;;;;;;;-140.72;100.00;53364.97;5108628;28;20058;-77
2022/11/20 04:51:15;;;;;;;8.40;6.28;;;;;;;-140.72;100.00;53397.44;5110896;28;20019;-77
2022/11/20 04:53:42;;;;;;;8.93;6.78;;;;;;;-140.72;100.00;53381.19;5110921;28;20396;-77
2022/11/20 04:56:09;;;;;;;11.25;7.10;;;;;;;-140.72;100.00;53393.38;5114151;28;20032;-77
2022/11/20 04:58:35;;;;;;;12.50;5.93;;;;;;;-140.72;100.00;53360.91;5115384;28;20027;-77
2022/11/20 05:01:05;;;;;;;9.15;5.80;;;;;;;-140.72;100.00;53397.44;5114917;28;20385;-77
2022/11/20 05:03:31;;;;;;;8.35;5.97;;;;;;;-140.72;100.00;53373.06;5115125;28;20032;-77
2022/11/20 05:05:59;;;;;;;7.97;6.25;;;;;;;-140.72;100.00;53438.03;5114471;28;20035;-77
2022/11/20 05:08:25;;;;;;;8.80;6.05;;;;;;;-140.72;100.00;53405.56;5115414;28;20062;-77
2022/11/20 05:10:50;;;;;;;11.65;6.43;;;;;;;-140.72;100.00;53393.38;5101359;28;20059;-77
2022/11/20 05:13:15;;;;;;;10.57;6.90;;;;;;;-140.72;100.00;53399.47;5115372;28;20051;-77
2022/11/20 05:15:41;;;;;;;11.18;7.07;;;;;;;-140.72;100.00;53385.25;5114628;28;20038;-77
2022/11/20 05:18:07;;;;;;;7.13;5.63;;;;;;;-140.72;100.00;53340.59;5105053;28;20020;-77
2022/11/20 05:20:32;;;;;;;13.07;6.72;;;;;;;-140.72;100.00;53379.16;5110202;28;20059;-77
2022/11/20 05:22:57;;;;;;;8.75;7.68;;;;;;;-140.72;100.00;53364.97;5115075;28;20469;-77
2022/11/20 05:25:26;;;;;;;11.82;7.65;;;;;;;-140.72;100.00;53389.31;5110634;28;20032;-77
2022/11/20 05:27:56;;;;;;;13.30;5.57;;;;;;;-140.72;100.00;53405.56;5102666;28;20028;-77
2022/11/20 05:30:22;;;;;;;10.45;5.72;;;;;;;-140.72;100.00;53373.06;5110820;28;20035;-79
2022/11/20 05:32:47;;;;;;;12.18;7.57;;;;;;;-140.72;100.00;53431.94;5104440;28;20031;-78
2022/11/20 05:35:13;;;;;;;11.18;5.90;;;;;;;-140.72;100.00;53379.16;5100323;28;20028;-79
2022/11/20 05:37:43;;;;;;;8.13;5.15;;;;;;;-140.72;100.00;53381.19;5114330;28;20365;-78
2022/11/20 05:40:09;;;;;;;10.13;6.53;;;;;;;-140.72;100.00;53409.59;5105205;28;20046;-78
2022/11/20 05:42:37;;;;;;;11.77;7.80;;;;;;;-140.72;100.00;53364.97;5106303;28;20039;-78
2022/11/20 05:45:04;;;;;;;9.80;6.20;;;;;;;-140.72;100.00;53403.53;5103575;28;20090;-79
2022/11/20 05:47:34;;;;;;;13.27;7.10;;;;;;;-140.72;100.00;53367.00;5114062;28;20092;-79
2022/11/20 05:50:00;;;;;;;10.23;5.93;;;;;;;-140.72;100.00;53364.97;5113534;28;20039;-79
2022/11/20 05:52:29;;;;;;;7.47;5.20;;;;;;;-140.72;100.00;53381.19;5114911;28;20043;-78
2022/11/20 05:54:55;;;;;;;;;;;;;;;-140.72;100.00;53373.06;5101660;28;20019;-77
2022/11/20 05:57:20;;;;;;;7.65;4.78;;;;;;;-140.72;100.00;53423.81;5114562;28;20307;-78
2022/11/20 05:59:46;;;;;;;8.23;5.07;;;;;;;-140.72;100.00;53391.34;5112689;28;20489;-79
2022/11/20 06:02:11;;;;;;;5.97;4.63;;;;;;;-140.72;100.00;53405.56;5113976;28;20028;-78
2022/11/20 06:04:37;;;;;;;7.13;5.68;;;;;;;-140.72;100.00;53387.28;5099892;28;20116;-78
2022/11/20 06:07:02;;;;;;;14.65;6.32;;;;;;;-140.72;100.00;53395.41;5112534;28;20028;-77
2022/11/20 06:09:28;;;;;;;10.82;6.47;;;;;;;-140.72;100.00;53419.75;5112463;28;20028;-78
2022/11/20 06:11:54;;;;;;;12.38;6.43;;;;;;;-140.72;100.00;53405.56;5100634;28;20047;-76
2022/11/20 06:14:20;;;;;;;8.50;6.03;;;;;;;-140.72;100.00;53373.06;5112339;28;20056;-77
2022/11/20 06:16:45;;;;;;;9.82;5.43;;;;;;;-140.72;100.00;53391.34;5113051;28;20024;-77
2022/11/20 06:19:10;;;;;;;7.60;5.10;;;;;;;-140.72;100.00;53367.00;5113124;28;20110;-77
2022/11/20 06:21:36;;;;;;;6.85;5.75;;;;;;;-140.72;100.00;53377.13;5111482;28;20201;-78
2022/11/20 06:24:02;;;;;;;13.82;5.55;;;;;;;-140.72;100.00;53377.13;5112504;28;20055;-78
2022/11/20 06:26:28;;;;;;;5.47;4.57;;;;;;;-140.72;100.00;53387.28;5113589;28;20032;-75
2022/11/20 06:28:55;;;;;;;7.25;4.53;;;;;;;-140.72;100.00;53409.59;5092262;28;20027;-79
2022/11/20 06:31:23;;;;;;;8.07;5.93;;;;;;;-140.72;100.00;53377.13;5095725;28;20531;-78
2022/11/20 06:33:50;;;;;;;10.57;5.40;;;;;;;-140.72;100.00;53344.66;5105377;28;20032;-78
2022/11/20 06:36:17;;;;;;;8.57;5.85;;;;;;;-140.72;100.00;53377.13;5105325;28;20144;-78
2022/11/20 06:38:43;;;;;;;10.77;6.00;;;;;;;-140.72;100.00;53377.13;5099867;28;20019;-78
2022/11/20 06:41:16;;;;;;;8.88;6.93;;;;;;;-140.72;100.00;53369.00;5099511;28;20024;-77
2022/11/20 06:43:42;;;;;;;9.48;5.63;;;;;;;-140.72;100.00;53360.91;5112994;28;20492;-78
2022/11/20 06:46:10;;;;;;;7.13;5.38;;;;;;;-140.72;100.00;53409.59;5112429;28;20023;-78
2022/11/20 06:48:35;;;;;;;12.23;6.07;;;;;;;-140.72;100.00;53389.31;5111208;28;20035;-78
2022/11/20 06:51:04;;;;;;;8.00;5.78;;;;;;;-140.72;100.00;53407.56;5108890;28;20047;-79
2022/11/20 06:53:29;;;;;;;9.07;7.30;;;;;;;-140.72;100.00;53413.66;5112551;28;20519;-80
2022/11/20 06:55:56;;;;;;;11.52;5.95;;;;;;;-140.72;100.00;53383.22;5111697;28;20035;-78
2022/11/20 06:58:22;;;;;;;7.53;5.78;;;;;;;-140.72;100.00;53397.44;5098919;28;20131;-79
2022/11/20 07:01:05;;;;;;;11.23;5.97;;;;;;;-140.72;100.00;53383.22;5111323;28;20122;-78
2022/11/20 07:03:30;;;;;;;11.00;7.20;;;;;;;-140.72;100.00;53383.22;5112061;28;20032;-78
2022/11/20 07:05:57;;;;;;;7.32;6.45;;;;;;;-140.72;100.00;53379.16;5110424;28;20380;-78
2022/11/20 07:08:24;;;;;;;9.48;6.18;;;;;;;-140.72;100.00;53354.81;5109410;28;20385;-77
2022/11/20 07:10:49;;;;;;;12.05;6.82;;;;;;;-140.72;100.00;53383.22;5107612;28;20043;-78
2022/11/20 07:13:17;;;;;;;10.98;6.70;;;;;;;-140.72;100.00;53356.84;5104722;28;20527;-78
2022/11/20 07:15:43;;;;;;;13.45;7.22;;;;;;;-140.72;100.00;53342.63;5100888;28;20477;-76
2022/11/20 07:18:08;;;;;;;9.93;6.53;;;;;;;-140.72;100.00;53340.59;5108503;28;20046;-78
2022/11/20 07:20:33;;;;;;;6.97;5.68;;;;;;;-140.72;100.00;53362.94;5111991;28;20111;-78
2022/11/20 07:23:01;;;;;;;13.07;7.72;;;;;;;-140.72;100.00;53389.31;5110474;28;20499;-78
2022/11/20 07:25:27;;;;;;;10.70;7.47;;;;;;;-140.72;100.00;53362.94;5098574;28;20027;-78
2022/11/20 07:27:56;;;;;;;12.77;7.22;;;;;;;-140.72;100.00;53401.50;5105909;28;20444;-77
2022/11/20 07:30:25;;;;;;;11.50;6.60;;;;;;;-140.72;100.00;53393.38;5099507;28;20099;-76
2022/11/20 07:32:52;;;;;;;9.65;6.40;;;;;;;-140.72;100.00;53346.69;5111803;28;20114;-75
2022/11/20 07:35:17;;;;;;;10.95;5.55;;;;;;;-140.72;100.00;53312.19;5098321;28;20021;-77
2022/11/20 07:37:43;;;;;;;11.75;6.88;;;;;;;-140.72;100.00;53362.94;5111216;28;20028;-77
2022/11/20 07:40:09;;;;;;;11.35;6.85;;;;;;;-140.72;100.00;53342.63;5105982;28;20019;-76
2022/11/20 07:42:34;;;;;;;8.35;6.35;;;;;;;-140.72;100.00;53340.59;5103253;28;20473;-77
2022/11/20 07:45:03;;;;;;;12.80;6.53;;;;;;;-140.72;100.00;53387.28;5109095;28;20024;-76
2022/11/20 07:47:28;;;;;;;11.03;6.70;;;;;;;-140.72;100.00;53364.97;5091836;28;20063;-77
2022/11/20 07:49:54;;;;;;;11.23;7.47;;;;;;;-140.72;100.00;53332.47;5109050;28;20067;-77
2022/11/20 07:52:19;;;;;;;9.80;7.05;;;;;;;-140.72;100.00;53336.53;5111369;28;20481;-77
2022/11/20 07:54:45;;;;;;;14.38;6.50;;;;;;;-140.72;100.00;53364.97;5110598;28;20521;-78
2022/11/20 07:57:13;;;;;;;10.45;9.10;;;;;;;-140.72;100.00;53344.66;5111585;28;20473;-76
2022/11/20 07:59:39;;;;;;;13.60;8.25;;;;;;;-140.72;100.00;53340.59;5110276;28;20553;-76
2022/11/20 08:02:04;;;;;;;8.30;6.47;;;;;;;-140.72;100.00;53322.34;5100008;28;20052;-75
2022/11/20 08:04:32;;;;;;;13.00;7.38;;;;;;;-140.72;100.00;53332.47;5107926;28;20043;-76
2022/11/20 08:06:57;;;;;;;11.07;6.10;;;;;;;-140.72;100.00;53350.75;5097108;28;20124;-74
2022/11/20 08:09:22;;;;;;;10.00;7.03;;;;;;;-140.72;100.00;53385.25;5098979;28;20600;-77
2022/11/20 08:14:32;;;;;;;10.20;7.75;;;;;;;-140.72;100.00;53342.63;5104784;28;20082;-77
2022/11/20 08:16:57;;;;;;;12.40;7.82;;;;;;;-140.72;100.00;53377.13;5107776;28;20055;-75
2022/11/20 08:19:22;;;;;;;9.43;6.47;;;;;;;-140.72;100.00;53344.66;5107105;28;20023;-76
2022/11/20 08:21:48;;;;;;;12.65;7.45;;;;;;;-140.72;100.00;53344.66;5105836;28;20111;-76
2022/11/20 08:37:50;;;;;;;12.02;8.15;;;;;;;-140.72;100.00;53328.41;5081983;27;20401;-67
2022/11/20 08:40:16;;;;;;;11.50;7.47;;;;;;;-140.72;100.00;53308.13;5080974;28;20446;-67
2022/11/20 08:42:49;;;;;;;11.25;7.40;;;;;;;-140.72;100.00;53304.06;5083492;28;20082;-68
2022/11/20 08:45:16;;;;;;;11.82;6.40;;;;;;;-140.72;100.00;53352.78;5079847;28;20025;-68
2022/11/20 08:47:41;;;;;;;10.45;7.07;;;;;;;-140.72;100.00;53350.75;5079370;28;20029;-67
2022/11/20 08:50:09;;;;;;;10.95;6.75;;;;;;;-140.72;100.00;53344.66;5082711;28;20027;-67
2022/11/20 08:52:34;;;;;;;12.55;7.25;;;;;;;-140.72;100.00;53316.25;5082868;28;20032;-67
2022/11/20 08:55:00;;;;;;;9.85;7.53;;;;;;;-140.72;100.00;53348.72;5084408;28;20385;-69
2022/11/20 08:57:26;;;;;;;11.85;7.28;;;;;;;-140.72;100.00;53306.09;5082249;28;20032;-67
2022/11/20 08:59:51;;;;;;;10.05;7.25;;;;;;;-140.72;100.00;53324.38;5078555;28;20024;-67
2022/11/20 09:02:16;;;;;;;11.40;7.60;;;;;;;-140.72;100.00;53336.53;5079310;28;20021;-67
2022/11/20 09:04:42;;;;;;;10.55;7.43;;;;;;;-140.72;100.00;53314.22;5079204;28;20017;-67
2022/11/20 09:07:07;;;;;;;10.38;7.05;;;;;;;-140.72;100.00;53269.56;5078719;28;20032;-67
2022/11/20 09:09:33;;;;;;;10.98;6.75;;;;;;;-140.72;100.00;53312.19;5088325;28;20063;-67
2022/11/20 09:11:58;;;;;;;12.70;7.60;;;;;;;-140.72;100.00;53314.22;5077244;28;20065;-67
2022/11/20 09:14:28;;;;;;;11.00;6.05;;;;;;;-140.72;100.00;53312.19;5086649;28;20111;-67
2022/11/20 09:16:56;;;;;;;12.27;7.30;;;;;;;-140.72;100.00;53277.69;5083154;28;20024;-68
2022/11/20 09:19:25;;;;;;;10.70;7.43;;;;;;;-140.72;100.00;53291.88;5083044;28;20054;-68
2022/11/20 09:21:51;;;;;;;9.63;7.63;;;;;;;-140.72;100.00;53316.25;5082366;28;20057;-67
2022/11/20 09:24:16;;;;;;;9.70;7.65;;;;;;;-140.72;100.00;53314.22;5076458;28;20025;-67
2022/11/20 09:26:42;;;;;;;11.90;7.00;;;;;;;-140.72;100.00;53291.88;5076160;28;20450;-67
2022/11/20 09:29:07;;;;;;;12.43;7.88;;;;;;;-140.72;100.00;53275.66;5086514;28;20062;-67
2022/11/20 09:31:33;;;;;;;10.82;8.55;;;;;;;-140.72;100.00;53310.16;5069430;28;20033;-67
2022/11/20 09:33:58;;;;;;;11.27;7.70;;;;;;;-140.72;100.00;53320.31;5068671;28;20024;-68
2022/11/20 09:36:23;;;;;;;16.17;8.55;;;;;;;-140.72;100.00;53291.88;5087094;28;20047;-66
2022/11/20 09:38:49;;;;;;;15.07;7.30;;;;;;;-140.72;100.00;53291.88;5081277;28;20064;-68
2022/11/20 09:41:54;;;;;;;12.77;7.13;;;;;;;-140.72;100.00;53281.75;5065844;28;20020;-68
2022/11/20 09:44:40;;;;;;;12.05;7.15;;;;;;;-140.72;100.00;53300.00;5058804;28;20270;-67
2022/11/20 09:47:14;;;;;;;12.38;6.45;;;;;;;-140.72;100.00;53304.06;5070183;28;20049;-67
2022/11/20 09:50:30;;;;;;;11.10;7.30;;;;;;;-140.72;100.00;53247.25;5063125;28;20035;-68
2022/11/20 09:53:11;;;;;;;10.73;7.68;;;;;;;-140.72;100.00;53259.41;5052974;28;20073;-68
2022/11/20 09:55:37;;;;;;;15.43;9.38;;;;;;;-140.72;100.00;53243.19;5056199;28;20060;-68
2022/11/20 09:58:07;;;;;;;14.60;8.45;;;;;;;-140.72;100.00;53255.34;5065395;28;20432;-67
2022/11/20 10:00:35;;;;;;;13.00;9.13;;;;;;;-140.72;100.00;53261.44;5053486;28;20059;-67
2022/11/20 10:03:12;;;;;;;11.15;7.18;;;;;;;-140.72;100.00;53279.72;5068295;28;20035;-67
2022/11/20 10:05:46;;;;;;;14.10;8.25;;;;;;;-140.72;100.00;53283.78;5065321;28;20029;-68
2022/11/20 10:08:34;;;;;;;11.32;8.07;;;;;;;-140.72;100.00;53316.25;5069698;28;20036;-68
2022/11/20 10:11:17;;;;;;;15.32;8.35;;;;;;;-140.72;100.00;53259.41;5060312;28;20021;-68
2022/11/20 10:14:04;;;;;;;11.73;7.45;;;;;;;-140.72;100.00;53275.66;5057840;28;20016;-69
2022/11/20 10:16:48;;;;;;;13.73;7.30;;;;;;;-140.72;100.00;53263.47;5064819;28;20125;-68
2022/11/20 10:19:46;;;;;;;12.55;8.45;;;;;;;-140.72;100.00;53263.47;5059615;28;20024;-68
2022/11/20 10:22:27;;;;;;;12.38;7.97;;;;;;;-140.72;100.00;53267.53;5063844;28;20029;-69
2022/11/20 10:25:01;;;;;;;13.48;9.13;;;;;;;-140.72;100.00;53277.69;5062776;28;20032;-69
2022/11/20 10:27:39;;;;;;;14.70;9.15;;;;;;;-140.72;100.00;53239.13;5070098;28;20477;-68
2022/11/20 10:30:13;;;;;;;13.27;7.97;;;;;;;-140.72;100.00;53271.59;5069882;28;20031;-68
2022/11/20 10:32:42;;;;;;;11.18;7.25;;;;;;;-140.72;100.00;53222.88;5072784;28;20527;-68
2022/11/20 10:35:16;;;;;;;11.60;8.60;;;;;;;-140.72;100.00;53265.50;5058728;28;20116;-69
2022/11/20 10:37:46;;;;;;;15.70;9.65;;;;;;;-140.72;100.00;53271.59;5065778;28;20139;-69
2022/11/20 10:40:23;;;;;;;13.73;8.65;;;;;;;-140.72;100.00;53267.53;5066600;28;20103;-69
2022/11/20 10:43:14;;;;;;;14.88;9.20;;;;;;;-140.72;100.00;53261.44;5064547;28;20025;-68
2022/11/20 10:46:00;;;;;;;10.45;8.00;;;;;;;-140.72;100.00;53245.22;5061740;28;20033;-68
2022/11/20 10:48:28;;;;;;;17.30;9.77;;;;;;;-140.72;100.00;53275.66;5065949;28;20028;-69
2022/11/20 10:51:19;;;;;;;12.98;8.57;;;;;;;-140.72;100.00;53287.84;5076739;28;20051;-71
2022/11/20 10:53:56;;;;;;;14.55;9.35;;;;;;;-140.72;100.00;53283.78;5060025;28;20029;-69
2022/11/20 10:56:31;;;;;;;13.50;8.85;;;;;;;-140.72;100.00;53297.97;5063440;28;20029;-69
2022/11/20 10:59:30;;;;;;;16.52;8.55;;;;;;;-140.72;100.00;53241.16;5061704;28;20476;-69
2022/11/20 11:01:55;;;;;;;13.50;8.45;;;;;;;-140.72;100.00;53263.47;5058876;28;20069;-68
2022/11/20 11:04:42;;;;;;;12.57;9.45;;;;;;;-140.72;100.00;53283.78;5061278;28;20036;-70
2022/11/20 11:07:20;;;;;;;16.25;9.55;;;;;;;-140.72;100.00;53267.53;5058327;28;20054;-68
2022/11/20 11:09:52;;;;;;;16.02;9.95;;;;;;;-140.72;100.00;53310.16;5064800;28;20060;-69
2022/11/20 11:12:22;;;;;;;15.95;8.98;;;;;;;-140.72;100.00;53231.00;5066481;28;20368;-70
2022/11/20 11:14:54;;;;;;;18.23;10.35;;;;;;;-140.72;100.00;53233.03;5062770;28;20025;-69
2022/11/20 11:17:28;;;;;;;12.95;9.25;;;;;;;-140.72;100.00;53261.44;5065501;28;20040;-69
2022/11/20 11:19:58;;;;;;;18.40;11.15;;;;;;;-140.72;100.00;53255.34;5066045;28;20025;-69
2022/11/20 11:22:23;;;;;;;19.55;9.90;;;;;;;-140.72;100.00;53316.25;5061724;28;20024;-68
2022/11/20 11:24:53;;;;;;;15.15;10.68;;;;;;;-140.72;100.00;53245.22;5066198;28;20029;-68
2022/11/20 11:27:18;;;;;;;17.23;9.38;;;;;;;-140.72;100.00;53261.44;5056612;28;20112;-69
2022/11/20 11:29:45;;;;;;;15.40;10.32;;;;;;;-140.72;100.00;53247.25;5057769;28;20066;-69